sensor_id;sensor_type;location;lat;lon;timestamp;pressure;altitude;pressure_sealevel;temperature;humidity
72061;BME280;59925;52.136;5.420;2022-08-19T00:01:56;101534.16;;;17.23;82.44
72061;BME280;59925;52.136;5.420;2022-08-19T00:04:27;101533.63;;;17.21;82.35
72061;BME280;59925;52.136;5.420;2022-08-19T00:06:55;101530.44;;;17.19;82.12
72061;BME280;59925;52.136;5.420;2022-08-19T00:09:23;101532.91;;;17.15;82.23
72061;BME280;59925;52.136;5.420;2022-08-19T00:11:51;101534.84;;;17.15;82.36
72061;BME280;59925;52.136;5.420;2022-08-19T00:14:18;101543.47;;;17.17;82.15
72061;BME280;59925;52.136;5.420;2022-08-19T00:16:47;101536.72;;;17.14;82.24
72061;BME280;59925;52.136;5.420;2022-08-19T00:19:15;101544.38;;;17.12;82.23
72061;BME280;59925;52.136;5.420;2022-08-19T00:21:42;101539.81;;;17.08;82.32
72061;BME280;59925;52.136;5.420;2022-08-19T00:24:11;101539.81;;;17.08;82.49
72061;BME280;59925;52.136;5.420;2022-08-19T00:26:37;101536.84;;;17.09;82.25
72061;BME280;59925;52.136;5.420;2022-08-19T00:29:06;101532.22;;;17.10;81.89
72061;BME280;59925;52.136;5.420;2022-08-19T00:31:33;101532.22;;;17.10;81.79
72061;BME280;59925;52.136;5.420;2022-08-19T00:34:00;101529.28;;;17.06;82.14
72061;BME280;59925;52.136;5.420;2022-08-19T00:36:26;101535.59;;;17.02;82.33
72061;BME280;59925;52.136;5.420;2022-08-19T00:38:55;101534.34;;;16.94;82.48
72061;BME280;59925;52.136;5.420;2022-08-19T00:41:23;101536.53;;;16.92;82.38
72061;BME280;59925;52.136;5.420;2022-08-19T00:44:11;101533.56;;;16.93;81.97
72061;BME280;59925;52.136;5.420;2022-08-19T00:46:41;101528.94;;;16.94;82.24
72061;BME280;59925;52.136;5.420;2022-08-19T00:49:19;101532.81;;;16.88;82.49
72061;BME280;59925;52.136;5.420;2022-08-19T00:51:48;101525.88;;;16.81;82.60
72061;BME280;59925;52.136;5.420;2022-08-19T00:54:17;101530.56;;;16.76;83.00
72061;BME280;59925;52.136;5.420;2022-08-19T00:56:53;101531.16;;;16.73;83.04
72061;BME280;59925;52.136;5.420;2022-08-19T00:59:21;101526.84;;;16.72;83.01
72061;BME280;59925;52.136;5.420;2022-08-19T01:02:08;101527.94;;;16.70;82.83
72061;BME280;59925;52.136;5.420;2022-08-19T01:04:35;101531.81;;;16.64;82.86
72061;BME280;59925;52.136;5.420;2022-08-19T01:07:02;101530.28;;;16.58;82.92
72061;BME280;59925;52.136;5.420;2022-08-19T01:09:29;101536.78;;;16.57;83.12
72061;BME280;59925;52.136;5.420;2022-08-19T01:11:56;101530.28;;;16.58;82.81
72061;BME280;59925;52.136;5.420;2022-08-19T01:14:23;101532.41;;;16.61;82.63
72061;BME280;59925;52.136;5.420;2022-08-19T01:16:51;101532.91;;;16.63;82.22
72061;BME280;59925;52.136;5.420;2022-08-19T01:19:26;101531.31;;;16.62;82.29
72061;BME280;59925;52.136;5.420;2022-08-19T01:22:00;101519.66;;;16.62;82.70
72061;BME280;59925;52.136;5.420;2022-08-19T01:24:39;101528.09;;;16.60;82.62
72061;BME280;59925;52.136;5.420;2022-08-19T01:27:15;101532.41;;;16.61;82.33
72061;BME280;59925;52.136;5.420;2022-08-19T01:29:43;101527.78;;;16.62;81.99
72061;BME280;59925;52.136;5.420;2022-08-19T01:32:13;101527.56;;;16.58;82.17
72061;BME280;59925;52.136;5.420;2022-08-19T01:34:59;101527.66;;;16.53;82.51
72061;BME280;59925;52.136;5.420;2022-08-19T01:37:28;101534.16;;;16.52;82.07
72061;BME280;59925;52.136;5.420;2022-08-19T01:39:56;101532.84;;;16.49;82.40
72061;BME280;59925;52.136;5.420;2022-08-19T01:42:23;101540.16;;;16.49;82.74
72061;BME280;59925;52.136;5.420;2022-08-19T01:44:56;101530.44;;;16.48;82.54
72061;BME280;59925;52.136;5.420;2022-08-19T01:47:22;101530.50;;;16.43;82.77
72061;BME280;59925;52.136;5.420;2022-08-19T01:49:49;101529.25;;;16.35;82.96
72061;BME280;59925;52.136;5.420;2022-08-19T01:52:15;101524.19;;;16.28;83.07
72061;BME280;59925;52.136;5.420;2022-08-19T01:54:42;101532.19;;;16.19;83.07
72061;BME280;59925;52.136;5.420;2022-08-19T01:57:10;101536.84;;;16.14;82.97
72061;BME280;59925;52.136;5.420;2022-08-19T01:59:39;101536.09;;;16.08;83.11
72061;BME280;59925;52.136;5.420;2022-08-19T02:02:06;101526.88;;;16.09;83.24
72061;BME280;59925;52.136;5.420;2022-08-19T02:04:35;101540.34;;;16.14;83.06
72061;BME280;59925;52.136;5.420;2022-08-19T02:07:04;101543.06;;;16.14;83.29
72061;BME280;59925;52.136;5.420;2022-08-19T02:09:32;101531.72;;;16.12;83.31
72061;BME280;59925;52.136;5.420;2022-08-19T02:11:58;101535.81;;;16.09;83.27
72061;BME280;59925;52.136;5.420;2022-08-19T02:14:25;101533.09;;;16.09;83.36
72061;BME280;59925;52.136;5.420;2022-08-19T02:16:51;101542.63;;;16.07;83.49
72061;BME280;59925;52.136;5.420;2022-08-19T02:19:17;101538.00;;;16.07;83.32
72061;BME280;59925;52.136;5.420;2022-08-19T02:21:44;101536.91;;;16.08;82.99
72061;BME280;59925;52.136;5.420;2022-08-19T02:24:10;101531.50;;;16.08;82.81
72061;BME280;59925;52.136;5.420;2022-08-19T02:26:38;101529.34;;;16.05;82.92
72061;BME280;59925;52.136;5.420;2022-08-19T02:29:04;101537.81;;;15.99;83.16
72061;BME280;59925;52.136;5.420;2022-08-19T02:31:31;101545.19;;;15.93;83.27
72061;BME280;59925;52.136;5.420;2022-08-19T02:33:58;101543.56;;;15.92;83.26
72061;BME280;59925;52.136;5.420;2022-08-19T02:36:25;101545.19;;;15.93;83.41
72061;BME280;59925;52.136;5.420;2022-08-19T02:38:51;101554.69;;;15.90;83.34
72061;BME280;59925;52.136;5.420;2022-08-19T02:41:23;101554.97;;;15.89;83.38
72061;BME280;59925;52.136;5.420;2022-08-19T02:43:56;101559.06;;;15.86;83.30
72061;BME280;59925;52.136;5.420;2022-08-19T02:46:46;101558.81;;;15.83;83.63
72061;BME280;59925;52.136;5.420;2022-08-19T02:49:13;101558.84;;;15.77;83.61
72061;BME280;59925;52.136;5.420;2022-08-19T02:51:44;101562.72;;;15.71;83.75
72061;BME280;59925;52.136;5.420;2022-08-19T02:54:12;101554.09;;;15.69;83.78
72061;BME280;59925;52.136;5.420;2022-08-19T02:56:40;101556.03;;;15.63;83.76
72061;BME280;59925;52.136;5.420;2022-08-19T02:59:07;101554.19;;;15.59;84.00
72061;BME280;59925;52.136;5.420;2022-08-19T03:01:38;101553.94;;;15.55;84.28
72061;BME280;59925;52.136;5.420;2022-08-19T03:04:07;101557.50;;;15.51;84.29
72061;BME280;59925;52.136;5.420;2022-08-19T03:06:37;101563.50;;;15.47;84.39
72061;BME280;59925;52.136;5.420;2022-08-19T03:09:03;101558.59;;;15.50;83.86
72061;BME280;59925;52.136;5.420;2022-08-19T03:11:31;101557.22;;;15.52;84.05
72061;BME280;59925;52.136;5.420;2022-08-19T03:13:59;101546.13;;;15.54;83.84
72061;BME280;59925;52.136;5.420;2022-08-19T03:16:29;101548.03;;;15.53;84.03
72061;BME280;59925;52.136;5.420;2022-08-19T03:18:59;101534.00;;;15.51;84.51
72061;BME280;59925;52.136;5.420;2022-08-19T03:21:31;101542.91;;;15.52;84.33
72061;BME280;59925;52.136;5.420;2022-08-19T03:24:00;101537.50;;;15.52;84.15
72061;BME280;59925;52.136;5.420;2022-08-19T03:26:28;101535.31;;;15.54;84.12
72061;BME280;59925;52.136;5.420;2022-08-19T03:28:55;101538.53;;;15.56;83.99
72061;BME280;59925;52.136;5.420;2022-08-19T03:31:25;101534.22;;;15.55;83.99
72061;BME280;59925;52.136;5.420;2022-08-19T03:34:27;101532.63;;;15.54;84.07
72061;BME280;59925;52.136;5.420;2022-08-19T03:36:55;101538.00;;;15.54;84.22
72061;BME280;59925;52.136;5.420;2022-08-19T03:39:23;101545.81;;;15.55;84.33
72061;BME280;59925;52.136;5.420;2022-08-19T03:41:52;101534.25;;;15.50;84.54
72061;BME280;59925;52.136;5.420;2022-08-19T03:44:39;101548.38;;;15.46;84.33
72061;BME280;59925;52.136;5.420;2022-08-19T03:47:05;101543.75;;;15.47;84.29
72061;BME280;59925;52.136;5.420;2022-08-19T03:49:32;101547.63;;;15.41;84.01
72061;BME280;59925;52.136;5.420;2022-08-19T03:52:02;101547.34;;;15.37;84.48
72061;BME280;59925;52.136;5.420;2022-08-19T03:54:31;101534.66;;;15.38;84.25
72061;BME280;59925;52.136;5.420;2022-08-19T03:56:57;101533.59;;;15.39;84.47
72061;BME280;59925;52.136;5.420;2022-08-19T03:59:31;101534.38;;;15.39;84.63
72061;BME280;59925;52.136;5.420;2022-08-19T04:02:00;101532.53;;;15.35;84.74
72061;BME280;59925;52.136;5.420;2022-08-19T04:04:27;101541.72;;;15.33;84.65
72061;BME280;59925;52.136;5.420;2022-08-19T04:06:56;101539.31;;;15.32;84.51
72061;BME280;59925;52.136;5.420;2022-08-19T04:09:23;101539.31;;;15.32;84.58
72061;BME280;59925;52.136;5.420;2022-08-19T04:11:52;101532.81;;;15.33;84.51
72061;BME280;59925;52.136;5.420;2022-08-19T04:14:30;101524.19;;;15.31;84.70
72061;BME280;59925;52.136;5.420;2022-08-19T04:17:00;101512.56;;;15.30;84.74
72061;BME280;59925;52.136;5.420;2022-08-19T04:19:29;101509.72;;;15.22;84.71
72061;BME280;59925;52.136;5.420;2022-08-19T04:21:56;101523.47;;;15.20;84.43
72061;BME280;59925;52.136;5.420;2022-08-19T04:24:22;101523.47;;;15.20;84.55
72061;BME280;59925;52.136;5.420;2022-08-19T04:26:49;101533.75;;;15.18;84.75
72061;BME280;59925;52.136;5.420;2022-08-19T04:29:19;101530.53;;;15.16;84.83
72061;BME280;59925;52.136;5.420;2022-08-19T04:31:48;101528.66;;;15.16;85.14
72061;BME280;59925;52.136;5.420;2022-08-19T04:34:17;101531.06;;;15.18;85.15
72061;BME280;59925;52.136;5.420;2022-08-19T04:36:44;101528.59;;;15.22;85.55
72061;BME280;59925;52.136;5.420;2022-08-19T04:39:15;101529.69;;;15.21;85.52
72061;BME280;59925;52.136;5.420;2022-08-19T04:41:43;101538.06;;;15.19;85.45
72061;BME280;59925;52.136;5.420;2022-08-19T04:44:33;101528.34;;;15.18;85.47
72061;BME280;59925;52.136;5.420;2022-08-19T04:47:01;101537.84;;;15.15;85.69
72061;BME280;59925;52.136;5.420;2022-08-19T04:49:36;101524.31;;;15.15;85.93
72061;BME280;59925;52.136;5.420;2022-08-19T04:52:03;101528.69;;;15.11;86.60
72061;BME280;59925;52.136;5.420;2022-08-19T04:54:29;101522.75;;;15.09;86.87
72061;BME280;59925;52.136;5.420;2022-08-19T04:57:05;101525.41;;;15.14;86.91
72061;BME280;59925;52.136;5.420;2022-08-19T04:59:33;101527.56;;;15.17;86.92
72061;BME280;59925;52.136;5.420;2022-08-19T05:02:00;101526.19;;;15.20;86.91
72061;BME280;59925;52.136;5.420;2022-08-19T05:04:27;101527.50;;;15.23;86.79
72061;BME280;59925;52.136;5.420;2022-08-19T05:06:57;101525.63;;;15.23;86.38
72061;BME280;59925;52.136;5.420;2022-08-19T05:09:27;101527.78;;;15.21;86.18
72061;BME280;59925;52.136;5.420;2022-08-19T05:12:14;101549.69;;;15.20;85.95
72061;BME280;59925;52.136;5.420;2022-08-19T05:14:40;101556.44;;;15.17;85.90
72061;BME280;59925;52.136;5.420;2022-08-19T05:17:06;101550.53;;;15.15;85.77
72061;BME280;59925;52.136;5.420;2022-08-19T05:19:52;101546.69;;;15.21;85.64
72061;BME280;59925;52.136;5.420;2022-08-19T05:22:37;101546.13;;;15.24;85.44
72061;BME280;59925;52.136;5.420;2022-08-19T05:25:10;101547.75;;;15.25;85.69
72061;BME280;59925;52.136;5.420;2022-08-19T05:27:40;101544.19;;;15.30;85.90
72061;BME280;59925;52.136;5.420;2022-08-19T05:30:08;101540.63;;;15.35;86.09
72061;BME280;59925;52.136;5.420;2022-08-19T05:32:34;101547.09;;;15.39;86.02
72061;BME280;59925;52.136;5.420;2022-08-19T05:35:01;101548.06;;;15.48;85.85
72061;BME280;59925;52.136;5.420;2022-08-19T05:37:28;101546.66;;;15.56;85.72
72061;BME280;59925;52.136;5.420;2022-08-19T05:39:55;101550.31;;;15.65;85.68
72061;BME280;59925;52.136;5.420;2022-08-19T05:42:22;101543.44;;;15.78;85.29
72061;BME280;59925;52.136;5.420;2022-08-19T05:44:50;101540.91;;;16.11;85.01
72061;BME280;59925;52.136;5.420;2022-08-19T05:47:16;101550.03;;;16.97;84.37
72061;BME280;59925;52.136;5.420;2022-08-19T05:49:46;101558.72;;;17.74;81.86
72061;BME280;59925;52.136;5.420;2022-08-19T05:52:14;101550.91;;;18.14;80.50
72061;BME280;59925;52.136;5.420;2022-08-19T05:54:45;101550.81;;;18.56;79.51
72061;BME280;59925;52.136;5.420;2022-08-19T05:57:17;101551.78;;;18.97;78.34
72061;BME280;59925;52.136;5.420;2022-08-19T05:59:44;101542.16;;;19.13;77.32
72061;BME280;59925;52.136;5.420;2022-08-19T06:02:12;101542.00;;;19.41;77.12
72061;BME280;59925;52.136;5.420;2022-08-19T06:04:40;101543.25;;;19.75;75.91
72061;BME280;59925;52.136;5.420;2022-08-19T06:07:09;101550.22;;;19.99;75.21
72061;BME280;59925;52.136;5.420;2022-08-19T06:09:38;101551.84;;;20.09;74.39
72061;BME280;59925;52.136;5.420;2022-08-19T06:12:05;101547.22;;;20.10;74.20
72061;BME280;59925;52.136;5.420;2022-08-19T06:14:34;101553.59;;;19.96;74.87
72061;BME280;59925;52.136;5.420;2022-08-19T06:17:07;101555.22;;;20.15;74.50
72061;BME280;59925;52.136;5.420;2022-08-19T06:19:34;101552.00;;;20.13;73.96
72061;BME280;59925;52.136;5.420;2022-08-19T06:22:06;101556.75;;;19.49;75.20
72061;BME280;59925;52.136;5.420;2022-08-19T06:24:33;101552.28;;;18.99;77.88
72061;BME280;59925;52.136;5.420;2022-08-19T06:27:00;101550.41;;;18.86;79.21
72061;BME280;59925;52.136;5.420;2022-08-19T06:29:28;101546.44;;;18.69;80.26
72061;BME280;59925;52.136;5.420;2022-08-19T06:31:57;101548.13;;;18.79;80.67
72061;BME280;59925;52.136;5.420;2022-08-19T06:34:26;101549.13;;;18.83;81.00
72061;BME280;59925;52.136;5.420;2022-08-19T06:36:55;101548.22;;;19.10;80.64
72061;BME280;59925;52.136;5.420;2022-08-19T06:39:25;101554.25;;;19.30;80.49
72061;BME280;59925;52.136;5.420;2022-08-19T06:41:54;101553.97;;;19.40;80.02
72061;BME280;59925;52.136;5.420;2022-08-19T06:44:26;101554.16;;;19.44;80.17
72061;BME280;59925;52.136;5.420;2022-08-19T06:46:54;101554.59;;;19.37;80.30
72061;BME280;59925;52.136;5.420;2022-08-19T06:49:22;101550.75;;;19.38;80.55
72061;BME280;59925;52.136;5.420;2022-08-19T06:51:49;101557.94;;;19.34;80.39
72061;BME280;59925;52.136;5.420;2022-08-19T06:54:18;101557.31;;;19.37;81.05
72061;BME280;59925;52.136;5.420;2022-08-19T06:56:46;101563.31;;;19.25;81.03
72061;BME280;59925;52.136;5.420;2022-08-19T06:59:16;101558.97;;;19.16;81.66
72061;BME280;59925;52.136;5.420;2022-08-19T07:01:46;101557.47;;;19.09;81.74
72061;BME280;59925;52.136;5.420;2022-08-19T07:04:15;101559.84;;;19.02;82.43
72061;BME280;59925;52.136;5.420;2022-08-19T07:06:42;101568.16;;;19.06;82.35
72061;BME280;59925;52.136;5.420;2022-08-19T07:09:13;101568.78;;;19.03;82.60
72061;BME280;59925;52.136;5.420;2022-08-19T07:11:49;101567.16;;;19.02;82.72
72061;BME280;59925;52.136;5.420;2022-08-19T07:14:18;101573.47;;;19.11;82.85
72061;BME280;59925;52.136;5.420;2022-08-19T07:16:48;101572.22;;;19.17;82.58
72061;BME280;59925;52.136;5.420;2022-08-19T07:19:15;101568.78;;;19.03;82.70
72061;BME280;59925;52.136;5.420;2022-08-19T07:21:45;101575.38;;;19.10;82.62
72061;BME280;59925;52.136;5.420;2022-08-19T07:24:12;101578.78;;;19.16;82.68
72061;BME280;59925;52.136;5.420;2022-08-19T07:26:41;101576.66;;;19.13;82.44
72061;BME280;59925;52.136;5.420;2022-08-19T07:29:09;101577.16;;;19.15;82.47
72061;BME280;59925;52.136;5.420;2022-08-19T07:31:35;101569.78;;;19.07;82.81
72061;BME280;59925;52.136;5.420;2022-08-19T07:34:05;101568.22;;;19.14;82.94
72061;BME280;59925;52.136;5.420;2022-08-19T07:36:37;101575.50;;;19.28;82.77
72061;BME280;59925;52.136;5.420;2022-08-19T07:39:11;101584.19;;;19.39;82.58
72061;BME280;59925;52.136;5.420;2022-08-19T07:41:38;101578.34;;;19.54;82.60
72061;BME280;59925;52.136;5.420;2022-08-19T07:44:06;101580.66;;;19.70;81.91
72061;BME280;59925;52.136;5.420;2022-08-19T07:46:35;101577.19;;;19.78;81.63
72061;BME280;59925;52.136;5.420;2022-08-19T07:49:05;101580.69;;;19.79;81.24
72061;BME280;59925;52.136;5.420;2022-08-19T07:51:33;101581.97;;;19.81;80.94
72061;BME280;59925;52.136;5.420;2022-08-19T07:54:02;101588.13;;;19.87;80.58
72061;BME280;59925;52.136;5.420;2022-08-19T07:56:29;101584.44;;;19.91;80.21
72061;BME280;59925;52.136;5.420;2022-08-19T07:58:55;101584.19;;;19.70;80.08
72061;BME280;59925;52.136;5.420;2022-08-19T08:01:27;101595.75;;;19.76;80.43
72061;BME280;59925;52.136;5.420;2022-08-19T08:03:56;101596.41;;;19.82;80.33
72061;BME280;59925;52.136;5.420;2022-08-19T08:06:42;101592.81;;;19.95;80.13
72061;BME280;59925;52.136;5.420;2022-08-19T08:09:31;101603.06;;;20.07;79.14
72061;BME280;59925;52.136;5.420;2022-08-19T08:14:53;101610.19;;;20.26;78.70
72061;BME280;59925;52.136;5.420;2022-08-19T08:17:24;101618.00;;;20.27;78.51
72061;BME280;59925;52.136;5.420;2022-08-19T08:20:10;101610.34;;;20.29;78.40
72061;BME280;59925;52.136;5.420;2022-08-19T08:22:37;101610.53;;;20.42;78.48
72061;BME280;59925;52.136;5.420;2022-08-19T08:25:27;101608.13;;;20.58;77.34
72061;BME280;59925;52.136;5.420;2022-08-19T08:27:57;101609.09;;;20.53;77.42
72061;BME280;59925;52.136;5.420;2022-08-19T08:30:27;101620.81;;;20.62;77.08
72061;BME280;59925;52.136;5.420;2022-08-19T08:32:58;101628.81;;;20.50;76.78
72061;BME280;59925;52.136;5.420;2022-08-19T08:35:25;101630.41;;;20.42;76.45
72061;BME280;59925;52.136;5.420;2022-08-19T08:37:54;101639.06;;;20.44;76.00
72061;BME280;59925;52.136;5.420;2022-08-19T08:40:26;101634.09;;;20.55;76.54
72061;BME280;59925;52.136;5.420;2022-08-19T08:43:44;101639.25;;;20.74;75.26
72061;BME280;59925;52.136;5.420;2022-08-19T08:45:56;101634.47;;;21.06;75.84
72061;BME280;59925;52.136;5.420;2022-08-19T08:48:44;101633.16;;;21.21;74.59
72061;BME280;59925;52.136;5.420;2022-08-19T08:51:28;101635.09;;;21.30;74.32
72061;BME280;59925;52.136;5.420;2022-08-19T08:54:02;101634.59;;;21.36;73.71
72061;BME280;59925;52.136;5.420;2022-08-19T08:56:30;101628.34;;;21.36;73.85
72061;BME280;59925;52.136;5.420;2022-08-19T08:59:05;101616.66;;;21.83;73.02
72061;BME280;59925;52.136;5.420;2022-08-19T09:01:34;101628.50;;;21.96;72.63
72061;BME280;59925;52.136;5.420;2022-08-19T09:04:04;101628.41;;;22.13;70.73
72061;BME280;59925;52.136;5.420;2022-08-19T09:09:14;101623.16;;;22.59;69.10
72061;BME280;59925;52.136;5.420;2022-08-19T09:17:25;101632.84;;;22.78;67.99
72061;BME280;59925;52.136;5.420;2022-08-19T09:20:04;101634.59;;;23.16;65.78
72061;BME280;59925;52.136;5.420;2022-08-19T09:22:39;101631.06;;;23.16;66.42
72061;BME280;59925;52.136;5.420;2022-08-19T09:25:09;101628.28;;;23.37;65.89
72061;BME280;59925;52.136;5.420;2022-08-19T09:27:38;101634.19;;;23.72;66.20
72061;BME280;59925;52.136;5.420;2022-08-19T09:30:25;101634.78;;;24.03;64.88
72061;BME280;59925;52.136;5.420;2022-08-19T09:32:52;101626.59;;;24.28;63.05
72061;BME280;59925;52.136;5.420;2022-08-19T09:35:22;101635.78;;;24.48;64.26
72061;BME280;59925;52.136;5.420;2022-08-19T09:37:49;101631.66;;;24.54;62.14
72061;BME280;59925;52.136;5.420;2022-08-19T09:40:23;101626.69;;;24.31;62.86
72061;BME280;59925;52.136;5.420;2022-08-19T09:42:51;101634.22;;;24.22;62.42
72061;BME280;59925;52.136;5.420;2022-08-19T09:45:20;101635.69;;;24.20;63.17
72061;BME280;59925;52.136;5.420;2022-08-19T09:47:50;101630.13;;;24.16;61.96
72061;BME280;59925;52.136;5.420;2022-08-19T09:50:19;101622.47;;;23.97;62.95
72061;BME280;59925;52.136;5.420;2022-08-19T09:52:46;101627.28;;;24.66;62.38
72061;BME280;59925;52.136;5.420;2022-08-19T09:55:20;101631.34;;;25.13;61.10
72061;BME280;59925;52.136;5.420;2022-08-19T09:57:49;101631.38;;;24.84;60.35
72061;BME280;59925;52.136;5.420;2022-08-19T10:00:15;101631.13;;;25.18;60.67
72061;BME280;59925;52.136;5.420;2022-08-19T10:02:42;101630.03;;;25.51;59.42
72061;BME280;59925;52.136;5.420;2022-08-19T10:05:11;101625.28;;;25.64;58.69
72061;BME280;59925;52.136;5.420;2022-08-19T10:07:56;101622.22;;;26.01;59.65
72061;BME280;59925;52.136;5.420;2022-08-19T10:10:22;101629.50;;;25.61;57.70
72061;BME280;59925;52.136;5.420;2022-08-19T10:12:50;101629.53;;;25.33;58.90
72061;BME280;59925;52.136;5.420;2022-08-19T10:15:16;101636.72;;;25.37;57.92
72061;BME280;59925;52.136;5.420;2022-08-19T10:17:55;101633.78;;;25.14;57.00
72061;BME280;59925;52.136;5.420;2022-08-19T10:20:21;101631.72;;;25.11;59.24
72061;BME280;59925;52.136;5.420;2022-08-19T10:22:49;101624.69;;;24.98;58.38
72061;BME280;59925;52.136;5.420;2022-08-19T10:25:17;101621.91;;;25.10;59.25
72061;BME280;59925;52.136;5.420;2022-08-19T10:27:43;101622.06;;;25.78;58.07
72061;BME280;59925;52.136;5.420;2022-08-19T10:30:16;101622.94;;;25.98;55.90
72061;BME280;59925;52.136;5.420;2022-08-19T10:32:43;101620.63;;;25.68;55.97
72061;BME280;59925;52.136;5.420;2022-08-19T10:35:13;101624.13;;;25.65;56.75
72061;BME280;59925;52.136;5.420;2022-08-19T10:37:46;101625.59;;;25.62;56.66
72061;BME280;59925;52.136;5.420;2022-08-19T10:40:27;101634.13;;;25.29;57.08
72061;BME280;59925;52.136;5.420;2022-08-19T10:42:55;101624.88;;;25.33;57.03
72061;BME280;59925;52.136;5.420;2022-08-19T10:45:24;101617.50;;;26.01;55.83
72061;BME280;59925;52.136;5.420;2022-08-19T10:47:55;101610.31;;;26.49;54.81
72061;BME280;59925;52.136;5.420;2022-08-19T10:50:22;101616.28;;;26.70;55.74
72061;BME280;59925;52.136;5.420;2022-08-19T10:53:08;101616.94;;;26.83;56.39
72061;BME280;59925;52.136;5.420;2022-08-19T10:55:37;101611.66;;;26.94;54.18
72061;BME280;59925;52.136;5.420;2022-08-19T10:58:22;101610.84;;;26.93;54.51
72061;BME280;59925;52.136;5.420;2022-08-19T11:00:54;101602.41;;;26.83;54.12
72061;BME280;59925;52.136;5.420;2022-08-19T11:03:21;101606.22;;;26.98;54.95
72061;BME280;59925;52.136;5.420;2022-08-19T11:08:25;101600.50;;;26.67;56.36
72061;BME280;59925;52.136;5.420;2022-08-19T11:10:53;101602.25;;;26.95;56.07
72061;BME280;59925;52.136;5.420;2022-08-19T11:13:23;101596.78;;;27.65;55.18
72061;BME280;59925;52.136;5.420;2022-08-19T11:16:01;101605.00;;;28.11;54.25
72061;BME280;59925;52.136;5.420;2022-08-19T11:18:38;101597.66;;;27.96;51.38
72061;BME280;59925;52.136;5.420;2022-08-19T11:21:14;101597.06;;;27.83;52.90
72061;BME280;59925;52.136;5.420;2022-08-19T11:23:43;101600.41;;;27.96;51.31
72061;BME280;59925;52.136;5.420;2022-08-19T11:26:10;101588.75;;;27.79;52.41
72061;BME280;59925;52.136;5.420;2022-08-19T11:28:36;101592.63;;;28.02;52.03
72061;BME280;59925;52.136;5.420;2022-08-19T11:31:03;101601.22;;;27.96;53.13
72061;BME280;59925;52.136;5.420;2022-08-19T11:33:30;101587.22;;;28.09;51.53
72061;BME280;59925;52.136;5.420;2022-08-19T11:35:58;101587.59;;;28.07;52.67
72061;BME280;59925;52.136;5.420;2022-08-19T11:38:25;101580.47;;;28.33;50.98
72061;BME280;59925;52.136;5.420;2022-08-19T11:41:00;101574.25;;;28.40;50.88
72061;BME280;59925;52.136;5.420;2022-08-19T11:43:28;101571.00;;;28.31;51.09
72061;BME280;59925;52.136;5.420;2022-08-19T11:45:57;101575.59;;;28.53;52.24
72061;BME280;59925;52.136;5.420;2022-08-19T11:48:24;101582.03;;;28.65;49.33
72061;BME280;59925;52.136;5.420;2022-08-19T11:50:52;101583.50;;;28.24;50.41
72061;BME280;59925;52.136;5.420;2022-08-19T11:53:20;101583.50;;;27.71;52.05
72061;BME280;59925;52.136;5.420;2022-08-19T11:55:47;101585.34;;;27.63;54.01
72061;BME280;59925;52.136;5.420;2022-08-19T11:58:15;101575.44;;;28.39;54.25
72061;BME280;59925;52.136;5.420;2022-08-19T12:00:44;101582.94;;;28.42;51.01
72061;BME280;59925;52.136;5.420;2022-08-19T12:03:14;101579.16;;;28.23;51.75
72061;BME280;59925;52.136;5.420;2022-08-19T12:05:41;101578.31;;;28.50;50.76
72061;BME280;59925;52.136;5.420;2022-08-19T12:08:08;101578.97;;;28.39;51.33
72061;BME280;59925;52.136;5.420;2022-08-19T12:10:35;101584.91;;;28.11;51.90
72061;BME280;59925;52.136;5.420;2022-08-19T12:13:01;101583.47;;;27.94;51.52
72061;BME280;59925;52.136;5.420;2022-08-19T12:15:28;101591.03;;;27.74;53.53
72061;BME280;59925;52.136;5.420;2022-08-19T12:18:03;101580.22;;;27.38;53.05
72061;BME280;59925;52.136;5.420;2022-08-19T12:20:30;101589.00;;;27.01;54.29
72061;BME280;59925;52.136;5.420;2022-08-19T12:23:00;101590.88;;;26.77;55.26
72061;BME280;59925;52.136;5.420;2022-08-19T12:25:27;101584.31;;;26.82;56.45
72061;BME280;59925;52.136;5.420;2022-08-19T12:27:53;101589.63;;;26.74;55.76
72061;BME280;59925;52.136;5.420;2022-08-19T12:30:22;101590.22;;;26.44;56.89
72061;BME280;59925;52.136;5.420;2022-08-19T12:32:49;101585.72;;;26.36;57.51
72061;BME280;59925;52.136;5.420;2022-08-19T12:35:17;101585.16;;;26.27;57.67
72061;BME280;59925;52.136;5.420;2022-08-19T12:37:49;101587.38;;;26.21;57.20
72061;BME280;59925;52.136;5.420;2022-08-19T12:40:22;101584.38;;;26.10;58.86
72061;BME280;59925;52.136;5.420;2022-08-19T12:42:51;101594.38;;;26.02;58.43
72061;BME280;59925;52.136;5.420;2022-08-19T12:45:18;101587.94;;;25.95;58.92
72061;BME280;59925;52.136;5.420;2022-08-19T12:47:46;101588.03;;;25.98;60.05
72061;BME280;59925;52.136;5.420;2022-08-19T12:50:13;101596.50;;;26.09;59.08
72061;BME280;59925;52.136;5.420;2022-08-19T12:52:39;101591.13;;;26.13;59.90
72061;BME280;59925;52.136;5.420;2022-08-19T12:55:09;101584.94;;;26.36;60.21
72061;BME280;59925;52.136;5.420;2022-08-19T12:57:36;101582.72;;;26.81;60.03
72061;BME280;59925;52.136;5.420;2022-08-19T13:00:12;101578.00;;;27.01;58.55
72061;BME280;59925;52.136;5.420;2022-08-19T13:02:42;101575.47;;;26.92;58.12
72061;BME280;59925;52.136;5.420;2022-08-19T13:05:12;101572.50;;;26.81;57.84
72061;BME280;59925;52.136;5.420;2022-08-19T13:07:40;101579.16;;;26.60;59.10
72061;BME280;59925;52.136;5.420;2022-08-19T13:10:08;101567.38;;;26.40;59.50
72061;BME280;59925;52.136;5.420;2022-08-19T13:12:35;101576.97;;;26.30;59.62
72061;BME280;59925;52.136;5.420;2022-08-19T13:15:02;101575.03;;;26.31;60.01
72061;BME280;59925;52.136;5.420;2022-08-19T13:17:36;101577.84;;;26.35;59.99
72061;BME280;59925;52.136;5.420;2022-08-19T13:20:03;101579.13;;;26.21;60.59